createdAt,value
2019-03-20T05:26:53.593Z,1028.13
2019-03-20T05:27:53.559Z,1028.16
2019-03-20T05:28:53.549Z,1028.12
2019-03-20T05:29:53.558Z,1028.15
2019-03-20T05:30:53.531Z,1028.17
2019-03-20T05:31:53.517Z,1028.19
2019-03-20T05:32:53.526Z,1028.17
2019-03-20T05:33:53.503Z,1028.24
2019-03-20T05:34:53.524Z,1028.23
2019-03-20T05:35:53.485Z,1028.20
2019-03-20T05:36:53.465Z,1028.24
2019-03-20T05:37:53.467Z,1028.27
2019-03-20T05:38:53.454Z,1028.25
2019-03-20T05:39:53.457Z,1028.31
2019-03-20T05:40:53.427Z,1028.30
2019-03-20T05:41:53.428Z,1028.21
2019-03-20T05:42:53.412Z,1028.25
2019-03-20T05:43:53.395Z,1028.26
2019-03-20T05:44:53.402Z,1028.20
2019-03-20T05:45:53.373Z,1028.26
2019-03-20T05:46:53.361Z,1028.28
2019-03-20T05:47:53.350Z,1028.29
2019-03-20T05:48:53.352Z,1028.29
2019-03-20T05:49:53.352Z,1028.29
2019-03-20T05:50:53.319Z,1028.30
2019-03-20T05:51:53.310Z,1028.31
2019-03-20T05:52:53.300Z,1028.35
2019-03-20T05:53:53.291Z,1028.33
2019-03-20T05:54:53.301Z,1028.34
2019-03-20T05:55:53.268Z,1028.39
2019-03-20T05:56:53.253Z,1028.45
2019-03-20T05:57:53.256Z,1028.43
2019-03-20T05:58:53.237Z,1028.48
2019-03-20T05:59:53.267Z,1028.50
2019-03-20T06:00:53.220Z,1028.43
2019-03-20T06:01:53.199Z,1028.42
2019-03-20T06:02:53.191Z,1028.38
2019-03-20T06:03:53.185Z,1028.39
2019-03-20T06:04:53.170Z,1028.36
2019-03-20T06:05:53.199Z,1028.37
2019-03-20T06:06:53.145Z,1028.37
2019-03-20T06:07:53.149Z,1028.36
2019-03-20T06:08:53.129Z,1028.44
2019-03-20T06:09:53.140Z,1028.42
2019-03-20T06:10:53.129Z,1028.42
2019-03-20T06:11:53.097Z,1028.42
2019-03-20T06:12:53.086Z,1028.43
2019-03-20T06:13:53.072Z,1028.44
2019-03-20T06:14:53.062Z,1028.45
2019-03-20T06:15:53.068Z,1028.48
2019-03-20T06:16:53.037Z,1028.50
2019-03-20T06:17:53.031Z,1028.55
2019-03-20T06:18:53.016Z,1028.52
2019-03-20T06:19:53.030Z,1028.52
2019-03-20T06:20:53.039Z,1028.52
2019-03-20T06:21:52.990Z,1028.53
2019-03-20T06:22:52.988Z,1028.56
2019-03-20T06:23:52.965Z,1028.54
2019-03-20T06:24:52.949Z,1028.61
2019-03-20T06:25:52.968Z,1028.57
2019-03-20T06:26:52.933Z,1028.64
2019-03-20T06:27:53.226Z,1028.61
2019-03-20T06:28:52.905Z,1028.62
2019-03-20T06:29:52.894Z,1028.60
2019-03-20T06:30:52.905Z,1028.62
2019-03-20T06:31:52.877Z,1028.64
2019-03-20T06:32:52.865Z,1028.64
2019-03-20T06:33:52.874Z,1028.64
2019-03-20T06:34:52.844Z,1028.63
2019-03-20T06:35:52.850Z,1028.67
2019-03-20T06:36:52.827Z,1028.71
2019-03-20T06:37:52.813Z,1028.72
2019-03-20T06:38:52.798Z,1028.73
2019-03-20T06:39:53.473Z,1028.74
2019-03-20T06:40:52.794Z,1028.75
2019-03-20T06:41:52.763Z,1028.76
2019-03-20T06:42:55.190Z,1028.77
2019-03-20T06:43:52.750Z,1028.77
2019-03-20T06:44:52.734Z,1028.80
2019-03-20T06:45:52.741Z,1028.81
2019-03-20T06:46:52.725Z,1028.80
2019-03-20T06:47:52.698Z,1028.84
2019-03-20T06:48:52.688Z,1028.85
2019-03-20T06:49:52.694Z,1028.86
2019-03-20T06:50:52.715Z,1028.88
2019-03-20T06:51:52.656Z,1028.85
2019-03-20T06:52:52.643Z,1028.89
2019-03-20T06:53:52.663Z,1028.80
2019-03-20T06:54:52.622Z,1028.85
2019-03-20T06:55:52.617Z,1028.81
2019-03-20T06:56:52.639Z,1028.85
2019-03-20T06:57:52.593Z,1028.87
2019-03-20T06:58:52.581Z,1028.85
2019-03-20T06:59:52.573Z,1028.87
2019-03-20T07:00:52.577Z,1028.89
2019-03-20T07:01:52.547Z,1028.87
2019-03-20T07:02:52.536Z,1028.78
2019-03-20T07:03:52.526Z,1028.88
2019-03-20T07:04:52.520Z,1028.87
2019-03-20T07:05:52.524Z,1028.82
2019-03-20T07:06:52.573Z,1028.85
2019-03-20T07:07:52.484Z,1028.83
2019-03-20T07:08:52.486Z,1028.85
2019-03-20T07:09:52.461Z,1028.90
2019-03-20T07:10:52.472Z,1028.92
2019-03-20T07:11:52.440Z,1028.88
2019-03-20T07:12:52.432Z,1028.92
2019-03-20T07:13:52.418Z,1028.91
2019-03-20T07:14:52.436Z,1028.96
2019-03-20T07:15:52.421Z,1028.98
2019-03-20T07:16:52.475Z,1028.97
2019-03-20T07:17:52.379Z,1028.90
2019-03-20T07:18:52.373Z,1028.88
2019-03-20T07:19:52.357Z,1028.87
2019-03-20T07:20:52.365Z,1028.85
2019-03-20T07:21:52.351Z,1028.89
2019-03-20T07:22:52.322Z,1028.83
2019-03-20T07:23:52.314Z,1028.89
2019-03-20T07:24:52.302Z,1028.87
2019-03-20T07:25:52.309Z,1028.91
2019-03-20T07:26:52.279Z,1028.97
2019-03-20T07:27:52.269Z,1029.01
2019-03-20T07:28:52.266Z,1029.07
2019-03-20T07:29:52.254Z,1029.07
2019-03-20T07:30:52.265Z,1029.08
2019-03-20T07:31:52.231Z,1029.01
2019-03-20T07:32:52.216Z,1029.07
2019-03-20T07:33:52.208Z,1029.00
2019-03-20T07:34:52.196Z,1028.99
2019-03-20T07:35:52.206Z,1029.07
2019-03-20T07:36:52.172Z,1029.06
2019-03-20T07:37:56.359Z,1029.09
2019-03-20T07:38:52.153Z,1029.09
2019-03-20T07:39:52.152Z,1029.13
2019-03-20T07:40:52.157Z,1029.15
2019-03-20T07:41:52.125Z,1029.15
2019-03-20T07:42:52.109Z,1029.16
2019-03-20T07:43:52.104Z,1029.11
2019-03-20T07:44:52.086Z,1029.10
2019-03-20T07:45:52.099Z,1029.07
2019-03-20T07:46:52.081Z,1029.07
2019-03-20T07:47:52.062Z,1029.11
2019-03-20T07:48:52.044Z,1029.09
2019-03-20T07:49:52.051Z,1029.12
2019-03-20T07:50:52.043Z,1029.16
2019-03-20T07:51:52.021Z,1029.16
2019-03-20T07:52:52.004Z,1029.14
2019-03-20T07:53:51.995Z,1029.19
2019-03-20T07:54:51.982Z,1029.19
2019-03-20T07:55:52.026Z,1029.20
2019-03-20T07:56:51.966Z,1029.22
2019-03-20T07:57:51.955Z,1029.20
2019-03-20T07:58:51.939Z,1029.21
2019-03-20T07:59:51.930Z,1029.20
2019-03-20T08:00:51.918Z,1029.18
2019-03-20T08:01:51.922Z,1029.20
2019-03-20T08:02:51.898Z,1029.21
2019-03-20T08:03:51.881Z,1029.17
2019-03-20T08:04:51.874Z,1029.20
2019-03-20T08:05:51.875Z,1029.22
2019-03-20T08:06:51.891Z,1029.25
2019-03-20T08:07:51.841Z,1029.22
2019-03-20T08:08:51.829Z,1029.16
2019-03-20T08:09:51.821Z,1029.19
2019-03-20T08:10:51.818Z,1029.20
2019-03-20T08:11:51.816Z,1029.21
2019-03-20T08:12:51.787Z,1029.24
2019-03-20T08:13:51.776Z,1029.22
2019-03-20T08:14:51.774Z,1029.20
2019-03-20T08:15:51.754Z,1029.23
2019-03-20T08:16:51.772Z,1029.23
2019-03-20T08:17:51.737Z,1029.26
2019-03-20T08:18:51.728Z,1029.27
2019-03-20T08:19:51.712Z,1029.25
2019-03-20T08:20:51.701Z,1029.33
2019-03-20T08:21:51.714Z,1029.29
2019-03-20T08:22:51.691Z,1029.33
2019-03-20T08:23:51.676Z,1029.31
2019-03-20T08:24:51.662Z,1029.34
2019-03-20T08:25:51.648Z,1029.25
2019-03-20T08:26:51.662Z,1029.31
2019-03-20T08:27:51.626Z,1029.29
2019-03-20T08:28:51.623Z,1029.30
2019-03-20T08:29:51.611Z,1029.33
2019-03-20T08:30:51.595Z,1029.36
2019-03-20T08:31:51.607Z,1029.35
2019-03-20T08:32:51.573Z,1029.36
2019-03-20T08:33:51.561Z,1029.34
2019-03-20T08:34:51.552Z,1029.37
2019-03-20T08:35:51.552Z,1029.35
2019-03-20T08:36:51.558Z,1029.37
2019-03-20T08:37:51.521Z,1029.37
2019-03-20T08:38:51.514Z,1029.34
2019-03-20T08:39:51.968Z,1029.36
2019-03-20T08:40:51.724Z,1029.38
2019-03-20T08:41:51.754Z,1029.41
2019-03-20T08:42:51.471Z,1029.42
2019-03-20T08:43:51.458Z,1029.44
2019-03-20T08:44:51.452Z,1029.38
2019-03-20T08:45:51.451Z,1029.39
2019-03-20T08:46:51.447Z,1029.32
2019-03-20T08:47:51.423Z,1029.35
2019-03-20T08:48:51.405Z,1029.42
2019-03-20T08:49:51.391Z,1029.43
2019-03-20T08:50:51.385Z,1029.43
2019-03-20T08:51:51.409Z,1029.48
2019-03-20T08:52:51.371Z,1029.50
2019-03-20T08:53:51.350Z,1029.49
2019-03-20T08:54:51.338Z,1029.46
2019-03-20T08:55:51.337Z,1029.43
2019-03-20T08:56:51.351Z,1029.45
2019-03-20T08:57:51.315Z,1029.46
2019-03-20T08:58:51.302Z,1029.44
2019-03-20T08:59:51.290Z,1029.49
2019-03-20T09:00:51.275Z,1029.50
2019-03-20T09:01:51.294Z,1029.50
2019-03-20T09:02:51.258Z,1029.57
2019-03-20T09:03:51.249Z,1029.54
2019-03-20T09:04:51.237Z,1029.58
2019-03-20T09:05:51.231Z,1029.56
2019-03-20T09:06:51.241Z,1029.58
2019-03-20T09:07:51.205Z,1029.54
2019-03-20T09:08:51.192Z,1029.60
2019-03-20T09:09:51.197Z,1029.57
2019-03-20T09:10:51.173Z,1029.57
2019-03-20T09:11:51.197Z,1029.59
2019-03-20T09:12:51.151Z,1029.60
2019-03-20T09:13:51.143Z,1029.55
2019-03-20T09:14:51.128Z,1029.61
2019-03-20T09:15:51.126Z,1029.59
2019-03-20T09:16:51.145Z,1029.57
2019-03-20T09:17:51.106Z,1029.59
2019-03-20T09:18:51.088Z,1029.63
2019-03-20T09:19:51.081Z,1029.62
2019-03-20T09:20:51.079Z,1029.58
2019-03-20T09:21:51.094Z,1029.60
2019-03-20T09:22:51.049Z,1029.60
2019-03-20T09:23:51.038Z,1029.63
2019-03-20T09:24:51.031Z,1029.62
2019-03-20T09:25:51.017Z,1029.61
2019-03-20T09:26:51.013Z,1029.67
2019-03-20T09:27:51.015Z,1029.60
2019-03-20T09:28:50.988Z,1029.62
2019-03-20T09:29:50.981Z,1029.63
2019-03-20T09:30:50.966Z,1029.59
2019-03-20T09:31:50.965Z,1029.59
2019-03-20T09:32:50.961Z,1029.60
2019-03-20T09:33:50.969Z,1029.62
2019-03-20T09:34:50.934Z,1029.62
2019-03-20T09:35:50.912Z,1029.59
2019-03-20T09:36:50.900Z,1029.62
2019-03-20T09:37:52.510Z,1029.60
2019-03-20T09:38:50.886Z,1029.57
2019-03-20T09:39:50.874Z,1029.61
2019-03-20T09:40:50.891Z,1029.66
2019-03-20T09:41:50.858Z,1029.66
2019-03-20T09:42:50.899Z,1029.63
2019-03-20T09:43:50.841Z,1029.64
2019-03-20T09:44:50.820Z,1029.68
2019-03-20T09:45:50.816Z,1029.65
2019-03-20T09:46:50.816Z,1029.66
2019-03-20T09:47:50.846Z,1029.65
2019-03-20T09:48:50.793Z,1029.64
2019-03-20T09:49:50.767Z,1029.64
2019-03-20T09:50:50.757Z,1029.63
2019-03-20T09:51:50.753Z,1029.70
2019-03-20T09:52:50.754Z,1029.63
2019-03-20T09:53:50.728Z,1029.62
2019-03-20T09:54:50.769Z,1029.62
2019-03-20T09:55:50.703Z,1029.60
2019-03-20T09:56:50.693Z,1029.65
2019-03-20T09:57:50.714Z,1029.66
2019-03-20T09:58:50.679Z,1029.61
2019-03-20T09:59:50.709Z,1029.61
2019-03-20T10:00:50.653Z,1029.62
2019-03-20T10:01:50.641Z,1029.65
2019-03-20T10:02:50.653Z,1029.61
2019-03-20T10:03:50.620Z,1029.60
2019-03-20T10:04:50.619Z,1029.61
2019-03-20T10:05:50.634Z,1029.63
2019-03-20T10:06:50.754Z,1029.62
2019-03-20T10:07:50.651Z,1029.60
2019-03-20T10:08:54.467Z,1029.66
2019-03-20T10:09:50.644Z,1029.63
2019-03-20T10:10:50.606Z,1029.56
2019-03-20T10:11:50.580Z,1029.52
2019-03-20T10:12:50.586Z,1029.54
2019-03-20T10:13:50.610Z,1029.55
2019-03-20T10:14:50.597Z,1029.56
2019-03-20T10:15:50.611Z,1029.52
2019-03-20T10:16:50.546Z,1029.49
2019-03-20T10:17:50.502Z,1029.47
2019-03-20T10:18:50.534Z,1029.42
2019-03-20T10:19:50.444Z,1029.41
2019-03-20T10:20:50.471Z,1029.46
2019-03-20T10:21:50.424Z,1029.42
2019-03-20T10:22:50.452Z,1029.46
2019-03-20T10:23:50.454Z,1029.47
2019-03-20T10:24:50.419Z,1029.44
2019-03-20T10:25:50.428Z,1029.43
2019-03-20T10:26:50.365Z,1029.61
2019-03-20T10:27:51.984Z,1029.48
2019-03-20T10:28:50.395Z,1029.47
2019-03-20T10:29:50.368Z,1029.49
2019-03-20T10:30:50.356Z,1029.46
2019-03-20T10:31:51.149Z,1029.50
2019-03-20T10:32:50.646Z,1029.46
2019-03-20T10:33:50.322Z,1029.47
2019-03-20T10:34:50.337Z,1029.47
2019-03-20T10:35:50.710Z,1029.48
2019-03-20T10:36:50.287Z,1029.43
2019-03-20T10:37:50.342Z,1029.40
2019-03-20T10:38:50.341Z,1029.44
2019-03-20T10:39:50.264Z,1029.40
2019-03-20T10:40:50.234Z,1029.41
2019-03-20T10:41:50.233Z,1029.44
2019-03-20T10:42:50.296Z,1029.38
2019-03-20T10:43:52.222Z,1029.37
2019-03-20T10:44:50.180Z,1029.41
2019-03-20T10:45:50.159Z,1029.44
2019-03-20T10:46:50.150Z,1029.41
2019-03-20T10:47:52.716Z,1029.37
2019-03-20T10:48:50.123Z,1029.39
2019-03-20T10:49:50.140Z,1029.39
2019-03-20T10:50:50.108Z,1029.42
2019-03-20T10:51:50.096Z,1029.38
2019-03-20T10:52:50.104Z,1029.35
2019-03-20T10:53:50.079Z,1029.38
2019-03-20T10:54:50.062Z,1029.35
2019-03-20T10:55:51.846Z,1029.33
2019-03-20T10:56:50.037Z,1029.35
2019-03-20T10:57:50.075Z,1029.38
2019-03-20T10:58:50.038Z,1029.43
2019-03-20T10:59:50.191Z,1029.44
2019-03-20T11:00:49.994Z,1029.44
2019-03-20T11:01:50.019Z,1029.53
2019-03-20T11:02:50.025Z,1029.54
2019-03-20T11:03:49.971Z,1029.46
2019-03-20T11:04:49.995Z,1029.42
2019-03-20T11:05:49.953Z,1029.40
2019-03-20T11:06:49.926Z,1029.37
2019-03-20T11:07:49.919Z,1029.34
2019-03-20T11:08:49.925Z,1029.37
2019-03-20T11:09:49.910Z,1029.36
2019-03-20T11:10:49.887Z,1029.33
2019-03-20T11:11:49.883Z,1029.37
2019-03-20T11:12:49.876Z,1029.34
2019-03-20T11:13:49.878Z,1029.34
2019-03-20T11:14:49.850Z,1029.38
2019-03-20T11:15:49.854Z,1029.42
2019-03-20T11:16:49.827Z,1029.35
2019-03-20T11:17:49.823Z,1029.41
2019-03-20T11:18:49.829Z,1029.34
2019-03-20T11:19:49.787Z,1029.35
2019-03-20T11:20:49.777Z,1029.40
2019-03-20T11:21:49.767Z,1029.39
2019-03-20T11:22:49.809Z,1029.32
2019-03-20T11:23:49.769Z,1029.35
2019-03-20T11:24:49.743Z,1029.36
2019-03-20T11:25:49.727Z,1029.31
2019-03-20T11:26:49.713Z,1029.31
2019-03-20T11:27:49.708Z,1029.27
2019-03-20T11:28:49.730Z,1029.29
2019-03-20T11:29:49.746Z,1029.31
2019-03-20T11:30:49.671Z,1029.27
2019-03-20T11:31:49.658Z,1029.24
2019-03-20T11:32:49.672Z,1029.20
2019-03-20T11:33:49.657Z,1029.22
2019-03-20T11:34:49.634Z,1029.30
2019-03-20T11:35:49.622Z,1029.27
2019-03-20T11:36:49.608Z,1029.26
2019-03-20T11:37:49.601Z,1029.20
2019-03-20T11:38:49.602Z,1029.27
2019-03-20T11:39:49.578Z,1029.23
2019-03-20T11:40:49.615Z,1029.29
2019-03-20T11:41:49.553Z,1029.30
2019-03-20T11:42:49.546Z,1029.29
2019-03-20T11:43:49.557Z,1029.27
2019-03-20T11:44:49.522Z,1029.25
2019-03-20T11:45:49.514Z,1029.27
2019-03-20T11:46:49.515Z,1029.26
2019-03-20T11:47:49.485Z,1029.29
2019-03-20T11:48:49.494Z,1029.31
2019-03-20T11:49:49.469Z,1029.31
2019-03-20T11:50:49.454Z,1029.33
2019-03-20T11:51:49.459Z,1029.34
2019-03-20T11:52:49.432Z,1029.32
2019-03-20T11:53:49.456Z,1029.26
2019-03-20T11:54:49.411Z,1029.26
2019-03-20T11:55:49.405Z,1029.24
2019-03-20T11:56:49.390Z,1029.20
2019-03-20T11:57:49.380Z,1029.23
2019-03-20T11:58:49.393Z,1029.18
2019-03-20T11:59:49.377Z,1029.18
2019-03-20T12:00:49.349Z,1029.18
2019-03-20T12:01:49.336Z,1029.14
2019-03-20T12:02:49.323Z,1029.14
2019-03-20T12:03:49.332Z,1029.20
2019-03-20T12:04:49.301Z,1029.20
2019-03-20T12:05:49.306Z,1029.25
2019-03-20T12:06:49.280Z,1029.28
2019-03-20T12:07:49.274Z,1029.29
2019-03-20T12:08:49.276Z,1029.33
2019-03-20T12:09:49.252Z,1029.30
2019-03-20T12:10:49.261Z,1029.27
2019-03-20T12:11:49.226Z,1029.24
2019-03-20T12:12:49.216Z,1029.23
2019-03-20T12:13:49.246Z,1029.20
2019-03-20T12:14:49.193Z,1029.22
2019-03-20T12:15:49.205Z,1029.16
2019-03-20T12:16:49.185Z,1029.22
2019-03-20T12:17:49.169Z,1029.14
2019-03-20T12:18:49.176Z,1029.16
2019-03-20T12:19:49.141Z,1029.17
2019-03-20T12:20:49.134Z,1029.14
2019-03-20T12:21:49.131Z,1029.17
2019-03-20T12:22:49.111Z,1029.13
2019-03-20T12:23:49.115Z,1029.07
2019-03-20T12:24:49.087Z,1029.14
2019-03-20T12:25:49.076Z,1029.02
2019-03-20T12:26:49.064Z,1029.08
2019-03-20T12:27:49.068Z,1029.10
2019-03-20T12:28:49.137Z,1029.12
2019-03-20T12:29:49.038Z,1029.09
2019-03-20T12:30:49.021Z,1029.10
2019-03-20T12:31:49.014Z,1029.09
2019-03-20T12:32:49.001Z,1029.16
2019-03-20T12:33:49.026Z,1029.15
2019-03-20T12:34:49.003Z,1029.13
2019-03-20T12:35:48.971Z,1029.14
2019-03-20T12:36:48.959Z,1029.20
2019-03-20T12:37:48.947Z,1029.17
2019-03-20T12:38:48.999Z,1029.18
2019-03-20T12:39:53.192Z,1029.10
2019-03-20T12:40:48.917Z,1029.10
2019-03-20T12:41:48.906Z,1029.17
2019-03-20T12:42:48.896Z,1028.98
2019-03-20T12:43:48.885Z,1029.16
2019-03-20T12:44:48.896Z,1029.05
2019-03-20T12:45:48.878Z,1029.03
2019-03-20T12:46:48.858Z,1029.03
2019-03-20T12:47:48.900Z,1029.02
2019-03-20T12:48:48.831Z,1029.04
2019-03-20T12:49:48.844Z,1029.00
2019-03-20T12:50:48.831Z,1028.94
2019-03-20T12:51:48.805Z,1028.95
2019-03-20T12:52:48.792Z,1028.91
2019-03-20T12:53:48.797Z,1028.88
2019-03-20T12:54:48.787Z,1028.88
2019-03-20T12:55:48.768Z,1028.80
2019-03-20T12:56:48.835Z,1028.88
2019-03-20T12:57:48.755Z,1028.90
2019-03-20T12:58:48.730Z,1028.83
2019-03-20T12:59:48.792Z,1028.90
2019-03-20T13:00:49.791Z,1028.89
2019-03-20T13:01:48.694Z,1028.88
2019-03-20T13:02:48.687Z,1028.89
2019-03-20T13:03:48.692Z,1028.88
2019-03-20T13:04:48.682Z,1028.98
2019-03-20T13:05:48.649Z,1028.99
2019-03-20T13:06:48.645Z,1028.95
2019-03-20T13:07:48.629Z,1028.91
2019-03-20T13:08:48.620Z,1028.97
2019-03-20T13:09:48.631Z,1028.92
2019-03-20T13:10:48.603Z,1028.98
2019-03-20T13:11:48.597Z,1029.00
2019-03-20T13:12:48.576Z,1029.03
2019-03-20T13:13:48.569Z,1028.96
2019-03-20T13:14:48.581Z,1029.00
2019-03-20T13:15:48.571Z,1029.03
2019-03-20T13:16:48.533Z,1028.95
2019-03-20T13:17:48.521Z,1028.94
2019-03-20T13:18:48.518Z,1028.93
2019-03-20T13:19:48.523Z,1028.98
2019-03-20T13:20:48.490Z,1028.97
2019-03-20T13:21:48.479Z,1028.92
2019-03-20T13:22:48.469Z,1028.93
2019-03-20T13:23:48.457Z,1028.87
2019-03-20T13:24:48.479Z,1028.85
2019-03-20T13:25:48.436Z,1028.93
2019-03-20T13:26:48.422Z,1028.92
2019-03-20T13:27:48.411Z,1028.94
2019-03-20T13:28:48.403Z,1028.93
2019-03-20T13:29:48.411Z,1028.92
2019-03-20T13:30:49.016Z,1028.96
2019-03-20T13:31:48.369Z,1028.96
2019-03-20T13:32:48.387Z,1028.96
2019-03-20T13:33:49.266Z,1028.86
2019-03-20T13:34:48.356Z,1028.82
2019-03-20T13:35:48.335Z,1028.81
2019-03-20T13:36:48.317Z,1028.80
2019-03-20T13:37:48.303Z,1028.77
2019-03-20T13:38:48.309Z,1028.78
2019-03-20T13:39:48.301Z,1028.81
2019-03-20T13:40:48.274Z,1028.80
2019-03-20T13:41:48.260Z,1028.81
2019-03-20T13:42:48.250Z,1028.81
2019-03-20T13:43:48.253Z,1028.82
2019-03-20T13:44:48.251Z,1028.81
2019-03-20T13:45:48.227Z,1028.85
2019-03-20T13:46:48.225Z,1028.86
2019-03-20T13:47:48.201Z,1028.79
2019-03-20T13:48:48.187Z,1028.77
2019-03-20T13:49:48.199Z,1028.79
2019-03-20T13:50:48.168Z,1028.76
2019-03-20T13:51:48.158Z,1028.78
2019-03-20T13:52:48.147Z,1028.76
2019-03-20T13:53:48.132Z,1028.76
2019-03-20T13:54:48.141Z,1028.79
2019-03-20T13:55:48.110Z,1028.77
2019-03-20T13:56:48.108Z,1028.74
2019-03-20T13:57:48.091Z,1028.74
2019-03-20T13:58:48.076Z,1028.74
2019-03-20T13:59:48.088Z,1028.76
2019-03-20T14:00:48.058Z,1028.77
2019-03-20T14:01:48.045Z,1028.75
2019-03-20T14:02:48.051Z,1028.70
2019-03-20T14:03:48.030Z,1028.74
2019-03-20T14:04:48.038Z,1028.77
2019-03-20T14:05:48.000Z,1028.75
2019-03-20T14:06:48.031Z,1028.74
2019-03-20T14:07:47.978Z,1028.78
2019-03-20T14:08:47.968Z,1028.77
2019-03-20T14:09:47.974Z,1028.84
2019-03-20T14:10:51.068Z,1028.88
2019-03-20T14:11:47.942Z,1028.87
2019-03-20T14:12:47.925Z,1028.85
2019-03-20T14:13:47.913Z,1028.86
2019-03-20T14:14:47.909Z,1028.88
2019-03-20T14:15:47.919Z,1028.85
2019-03-20T14:16:47.882Z,1028.86
2019-03-20T14:17:47.869Z,1028.83
2019-03-20T14:18:47.863Z,1028.79
2019-03-20T14:19:47.850Z,1028.81
2019-03-20T14:20:47.849Z,1028.83
2019-03-20T14:21:47.843Z,1028.83
2019-03-20T14:22:47.816Z,1028.81
2019-03-20T14:23:47.808Z,1028.78
2019-03-20T14:24:47.792Z,1028.81
2019-03-20T14:25:47.794Z,1028.78
2019-03-20T14:26:47.776Z,1028.80
2019-03-20T14:27:47.760Z,1028.79
2019-03-20T14:28:47.774Z,1028.84
2019-03-20T14:29:47.736Z,1028.85
2019-03-20T14:30:47.750Z,1028.82
2019-03-20T14:31:47.716Z,1028.83
2019-03-20T14:32:47.711Z,1028.86
2019-03-20T14:33:47.707Z,1028.84
2019-03-20T14:34:47.700Z,1028.80
2019-03-20T14:35:47.690Z,1028.80
2019-03-20T14:36:47.664Z,1028.76
2019-03-20T14:37:47.651Z,1028.79
2019-03-20T14:38:47.639Z,1028.78
2019-03-20T14:39:47.630Z,1028.83
2019-03-20T14:40:47.635Z,1028.84
2019-03-20T14:41:47.616Z,1028.82
2019-03-20T14:42:47.598Z,1028.78
2019-03-20T14:43:47.586Z,1028.82
2019-03-20T14:44:47.574Z,1028.79
2019-03-20T14:45:47.581Z,1028.80
2019-03-20T14:46:47.553Z,1028.88
2019-03-20T14:47:47.548Z,1028.88
2019-03-20T14:48:47.538Z,1028.85
2019-03-20T14:49:47.522Z,1028.89
2019-03-20T14:50:47.528Z,1028.91
2019-03-20T14:51:47.506Z,1028.91
2019-03-20T14:52:47.485Z,1028.94
2019-03-20T14:53:47.480Z,1028.96
2019-03-20T14:54:47.480Z,1028.91
2019-03-20T14:55:47.476Z,1028.90
2019-03-20T14:56:47.442Z,1028.84
2019-03-20T14:57:47.447Z,1028.85
2019-03-20T14:58:47.420Z,1028.82
2019-03-20T14:59:47.414Z,1028.84
2019-03-20T15:00:47.717Z,1028.82
2019-03-20T15:01:47.387Z,1028.77
2019-03-20T15:02:47.387Z,1028.81
2019-03-20T15:03:48.743Z,1028.75
2019-03-20T15:04:47.357Z,1028.72
2019-03-20T15:05:47.363Z,1028.76
2019-03-20T15:06:47.338Z,1028.76
2019-03-20T15:07:47.322Z,1028.74
2019-03-20T15:08:47.330Z,1028.79
2019-03-20T15:09:47.306Z,1028.77
2019-03-20T15:10:47.307Z,1028.75
2019-03-20T15:11:47.279Z,1028.73
2019-03-20T15:12:47.268Z,1028.76
2019-03-20T15:13:47.255Z,1028.70
2019-03-20T15:14:47.267Z,1028.75
2019-03-20T15:15:47.267Z,1028.76
2019-03-20T15:16:47.230Z,1028.73
2019-03-20T15:17:47.215Z,1028.72
2019-03-20T15:18:47.206Z,1028.70
2019-03-20T15:19:47.191Z,1028.69
2019-03-20T15:20:47.204Z,1028.73
2019-03-20T15:21:47.201Z,1028.70
2019-03-20T15:22:47.159Z,1028.68
2019-03-20T15:23:47.149Z,1028.67
2019-03-20T15:24:47.138Z,1028.66
2019-03-20T15:25:47.154Z,1028.71
2019-03-20T15:26:47.122Z,1028.66
2019-03-20T15:27:47.106Z,1028.63
2019-03-20T15:28:47.093Z,1028.64
2019-03-20T15:29:47.095Z,1028.65
2019-03-20T15:30:47.102Z,1028.62
2019-03-20T15:31:47.066Z,1028.60
2019-03-20T15:32:47.053Z,1028.55
2019-03-20T15:33:47.036Z,1028.58
2019-03-20T15:34:47.028Z,1028.56
2019-03-20T15:35:47.036Z,1028.52
2019-03-20T15:36:47.018Z,1028.50
2019-03-20T15:37:47.003Z,1028.50
2019-03-20T15:38:46.987Z,1028.52
2019-03-20T15:39:46.975Z,1028.48
2019-03-20T15:40:55.878Z,1028.51
2019-03-20T15:41:47.951Z,1028.50
2019-03-20T15:42:46.946Z,1028.48
2019-03-20T15:43:46.950Z,1028.53
2019-03-20T15:44:46.920Z,1028.52
2019-03-20T15:45:46.938Z,1028.53
2019-03-20T15:46:46.895Z,1028.55
2019-03-20T15:47:46.889Z,1028.53
2019-03-20T15:48:46.872Z,1028.52
2019-03-20T15:49:46.869Z,1028.53
2019-03-20T15:50:46.872Z,1028.52
2019-03-20T15:51:46.839Z,1028.51
2019-03-20T15:52:46.829Z,1028.50
2019-03-20T15:53:46.821Z,1028.53
2019-03-20T15:54:46.807Z,1028.53
2019-03-20T15:55:46.818Z,1028.53
2019-03-20T15:56:46.808Z,1028.53
2019-03-20T15:57:46.818Z,1028.56
2019-03-20T15:58:46.765Z,1028.52
2019-03-20T15:59:46.756Z,1028.52
2019-03-20T16:00:46.767Z,1028.53
2019-03-20T16:01:46.732Z,1028.57
2019-03-20T16:02:46.749Z,1028.55
2019-03-20T16:03:46.726Z,1028.57
2019-03-20T16:04:46.699Z,1028.50
2019-03-20T16:05:46.694Z,1028.52
2019-03-20T16:06:46.706Z,1028.57
2019-03-20T16:07:46.671Z,1028.55
2019-03-20T16:08:46.668Z,1028.56
2019-03-20T16:09:46.649Z,1028.57
2019-03-20T16:10:46.663Z,1028.55
2019-03-20T16:11:46.625Z,1028.58
2019-03-20T16:12:46.613Z,1028.56
2019-03-20T16:13:46.601Z,1028.60
2019-03-20T16:14:46.602Z,1028.53
2019-03-20T16:15:46.602Z,1028.54
2019-03-20T16:16:46.574Z,1028.51
2019-03-20T16:17:46.558Z,1028.53
2019-03-20T16:18:46.551Z,1028.48
2019-03-20T16:19:46.545Z,1028.51
2019-03-20T16:20:46.556Z,1028.52
2019-03-20T16:21:46.513Z,1028.48
2019-03-20T16:22:46.507Z,1028.44
2019-03-20T16:23:46.490Z,1028.42
2019-03-20T16:24:46.487Z,1028.42
2019-03-20T16:25:46.488Z,1028.43
2019-03-20T16:26:46.478Z,1028.45
2019-03-20T16:27:46.446Z,1028.49
2019-03-20T16:28:46.433Z,1028.52
2019-03-20T16:29:46.425Z,1028.51
2019-03-20T16:30:46.424Z,1028.52
2019-03-20T16:31:46.429Z,1028.54
2019-03-20T16:32:46.399Z,1028.48
2019-03-20T16:33:46.379Z,1028.48
2019-03-20T16:34:46.934Z,1028.47
2019-03-20T16:35:46.400Z,1028.47
2019-03-20T16:36:46.366Z,1028.47
2019-03-20T16:37:46.392Z,1028.51
2019-03-20T16:38:46.343Z,1028.48
2019-03-20T16:39:46.315Z,1028.49
2019-03-20T16:40:46.303Z,1028.46
2019-03-20T16:41:46.320Z,1028.47
2019-03-20T16:42:46.282Z,1028.50
2019-03-20T16:43:46.282Z,1028.52
2019-03-20T16:44:46.285Z,1028.48
2019-03-20T16:45:46.248Z,1028.45
2019-03-20T16:46:46.255Z,1028.50
2019-03-20T16:47:46.234Z,1028.50
2019-03-20T16:48:46.218Z,1028.52
2019-03-20T16:49:46.213Z,1028.52
2019-03-20T16:50:46.197Z,1028.54
2019-03-20T16:51:46.203Z,1028.47
2019-03-20T16:52:46.180Z,1028.55
2019-03-20T16:53:46.168Z,1028.50
2019-03-20T16:54:46.156Z,1028.50
2019-03-20T16:55:46.152Z,1028.50
2019-03-20T16:56:46.160Z,1028.49
2019-03-20T16:57:46.114Z,1028.50
2019-03-20T16:58:46.103Z,1028.51
2019-03-20T16:59:46.102Z,1028.52
2019-03-20T17:00:46.094Z,1028.50
2019-03-20T17:01:46.096Z,1028.50
2019-03-20T17:02:46.060Z,1028.55
2019-03-20T17:03:46.048Z,1028.53
2019-03-20T17:04:46.037Z,1028.55
2019-03-20T17:05:46.031Z,1028.58
2019-03-20T17:06:46.039Z,1028.61
2019-03-20T17:07:46.005Z,1028.57
2019-03-20T17:08:45.993Z,1028.63
2019-03-20T17:09:45.984Z,1028.61
2019-03-20T17:10:45.973Z,1028.63
2019-03-20T17:11:45.988Z,1028.68
2019-03-20T17:12:45.946Z,1028.71
2019-03-20T17:13:45.937Z,1028.67
2019-03-20T17:14:45.927Z,1028.72
2019-03-20T17:15:45.914Z,1028.73
2019-03-20T17:16:45.939Z,1028.74
2019-03-20T17:17:45.905Z,1028.79
2019-03-20T17:18:45.884Z,1028.81
2019-03-20T17:19:45.878Z,1028.87
2019-03-20T17:20:45.865Z,1028.85
2019-03-20T17:21:45.868Z,1028.81
2019-03-20T17:22:45.835Z,1028.84
2019-03-20T17:23:45.837Z,1028.80
2019-03-20T17:24:45.826Z,1028.76
2019-03-20T17:25:45.803Z,1028.80
2019-03-20T17:26:45.810Z,1028.80
2019-03-20T17:27:45.781Z,1028.77
2019-03-20T17:28:45.769Z,1028.78
2019-03-20T17:29:45.781Z,1028.83
2019-03-20T17:30:45.773Z,1028.79
2019-03-20T17:31:45.760Z,1028.81